Time;durP1;ratioP1;P1;durP2;ratioP2;P2;SDS_P1;SDS_P2;PMS_P1;PMS_P2;Temp;Humidity;BMP_temperature;BMP_pressure;BME280_temperature;BME280_humidity;BME280_pressure;Samples;Min_cycle;Max_cycle;Signal;HPM_P1;HPM_P2
2021/11/09 00:00:31;;;;;;;82.72;50.72;;;;;;;5.93;100.00;99786.34;2088469;28;20626;-83
2021/11/09 00:01:41;;;;;;;89.50;50.00;;;;;;;5.91;100.00;99788.44;2088597;28;20280;-83
2021/11/09 00:02:44;;;;;;;81.97;49.08;;;;;;;5.92;100.00;99784.75;2088468;28;20684;-84
2021/11/09 00:03:49;;;;;;;88.40;50.42;;;;;;;5.93;100.00;99789.00;2088186;28;20246;-84
2021/11/09 00:04:51;;;;;;;81.82;48.65;;;;;;;5.91;100.00;99783.16;2087951;28;20219;-83
2021/11/09 00:05:56;;;;;;;81.72;49.38;;;;;;;5.91;100.00;99793.75;2088412;28;20238;-83
2021/11/09 00:07:02;;;;;;;93.22;51.20;;;;;;;5.92;100.00;99796.13;2088656;28;20253;-82
2021/11/09 00:08:10;;;;;;;86.18;50.88;;;;;;;5.94;100.00;99790.59;2087999;28;20241;-83
2021/11/09 00:09:15;;;;;;;84.97;50.40;;;;;;;5.93;100.00;99796.94;2087547;28;20613;-83
2021/11/09 00:10:18;;;;;;;83.07;49.58;;;;;;;5.93;100.00;99796.94;2088676;28;20222;-83
2021/11/09 00:11:19;;;;;;;79.97;49.63;;;;;;;5.92;100.00;99795.34;2087776;28;20689;-83
2021/11/09 00:12:24;;;;;;;79.75;49.15;;;;;;;6.01;100.00;99799.16;2087872;28;20276;-83
2021/11/09 00:13:25;;;;;;;82.10;47.75;;;;;;;5.99;100.00;99795.91;2087973;28;20421;-83
2021/11/09 00:14:27;;;;;;;87.80;49.97;;;;;;;5.98;100.00;99791.69;2088581;28;20226;-83
2021/11/09 00:15:29;;;;;;;79.70;47.65;;;;;;;5.96;100.00;99796.44;2087406;28;20257;-83
2021/11/09 00:16:31;;;;;;;83.25;48.70;;;;;;;5.97;100.00;99797.22;2079555;28;20674;-83
2021/11/09 00:17:33;;;;;;;87.47;49.67;;;;;;;5.97;100.00;99802.53;2087643;28;20225;-84
2021/11/09 00:18:36;;;;;;;81.80;47.58;;;;;;;5.97;100.00;99803.31;2088195;28;20242;-83
2021/11/09 00:19:36;;;;;;;84.72;50.30;;;;;;;5.98;100.00;99796.97;2087430;28;20231;-83
2021/11/09 00:20:39;;;;;;;82.23;48.97;;;;;;;5.99;100.00;99803.88;2087460;28;20313;-81
2021/11/09 00:21:40;;;;;;;78.05;46.20;;;;;;;6.01;100.00;99804.44;2088129;28;20272;-83
2021/11/09 00:22:43;;;;;;;82.53;46.83;;;;;;;6.00;100.00;99802.84;2088317;28;20226;-83
2021/11/09 00:23:47;;;;;;;81.13;47.05;;;;;;;5.98;100.00;99804.91;2087575;28;20219;-83
2021/11/09 00:24:52;;;;;;;75.40;46.90;;;;;;;6.03;100.00;99806.84;2087599;28;20566;-83
2021/11/09 00:25:54;;;;;;;83.68;47.92;;;;;;;6.04;100.00;99808.44;2087821;28;20242;-83
2021/11/09 00:26:55;;;;;;;83.95;46.13;;;;;;;5.98;100.00;99799.63;2087560;28;20618;-83
2021/11/09 00:27:58;;;;;;;80.87;48.23;;;;;;;6.02;100.00;99800.75;2087525;28;20226;-83
2021/11/09 00:28:59;;;;;;;79.22;46.17;;;;;;;6.06;100.00;99803.69;2087665;28;20233;-83
2021/11/09 00:30:01;;;;;;;77.67;45.57;;;;;;;6.03;100.00;99810.28;2079593;28;20250;-83
2021/11/09 00:31:02;;;;;;;77.30;47.47;;;;;;;6.03;100.00;99805.00;2087781;28;20234;-83
2021/11/09 00:32:05;;;;;;;81.13;46.93;;;;;;;6.02;100.00;99808.69;2087417;28;20247;-84
2021/11/09 00:33:06;;;;;;;71.68;45.45;;;;;;;6.00;100.00;99813.44;2087353;28;20727;-84
2021/11/09 00:34:08;;;;;;;84.57;48.38;;;;;;;5.98;100.00;99812.88;2086986;28;20246;-79
2021/11/09 00:35:09;;;;;;;80.43;47.00;;;;;;;5.96;100.00;99809.66;2088146;28;20230;-83
2021/11/09 00:36:11;;;;;;;79.88;48.85;;;;;;;5.98;100.00;99815.50;2088265;28;20230;-84
2021/11/09 00:37:13;;;;;;;77.20;46.42;;;;;;;6.00;100.00;99808.16;2088275;28;20315;-84
2021/11/09 00:38:17;;;;;;;76.47;46.95;;;;;;;5.98;100.00;99814.72;2088448;28;20729;-83
2021/11/09 00:39:18;;;;;;;82.90;48.67;;;;;;;5.95;100.00;99816.81;2087743;28;20233;-85
2021/11/09 00:40:23;;;;;;;78.00;47.50;;;;;;;5.96;100.00;99817.63;2087626;28;20227;-85
2021/11/09 00:41:24;;;;;;;76.93;47.45;;;;;;;5.94;100.00;99815.22;2087935;28;20230;-84
2021/11/09 00:42:26;;;;;;;79.43;47.72;;;;;;;5.92;100.00;99809.38;2088404;28;20253;-84
2021/11/09 00:43:28;;;;;;;80.35;46.85;;;;;;;5.91;100.00;99814.91;2088350;28;20234;-84
2021/11/09 00:44:30;;;;;;;80.22;48.50;;;;;;;5.91;100.00;99810.44;2088602;28;20226;-84
2021/11/09 00:45:32;;;;;;;77.13;48.00;;;;;;;5.90;100.00;99808.81;2087879;28;20226;-84
2021/11/09 00:46:35;;;;;;;74.72;47.08;;;;;;;5.91;100.00;99820.22;2079662;28;20222;-85
2021/11/09 00:47:39;;;;;;;74.95;44.70;;;;;;;5.88;100.00;99807.41;2079391;28;20234;-84
2021/11/09 00:48:41;;;;;;;81.03;47.08;;;;;;;5.90;100.00;99813.25;2079407;28;20289;-84
2021/11/09 00:49:42;;;;;;;79.50;46.67;;;;;;;5.90;100.00;99819.38;2087432;28;20238;-83
2021/11/09 00:50:46;;;;;;;77.10;45.57;;;;;;;5.94;100.00;99814.41;2087144;28;20697;-83
2021/11/09 00:51:49;;;;;;;74.28;45.75;;;;;;;5.93;100.00;99810.16;2088051;28;20227;-83
2021/11/09 00:52:52;;;;;;;78.82;46.35;;;;;;;5.91;100.00;99809.63;2088259;28;20238;-83
2021/11/09 00:53:53;;;;;;;79.60;45.75;;;;;;;5.92;100.00;99812.03;2087871;28;20229;-82
2021/11/09 00:54:55;;;;;;;85.47;47.05;;;;;;;5.91;100.00;99812.28;2087364;28;20304;-83
2021/11/09 00:55:57;;;;;;;79.63;46.88;;;;;;;5.91;100.00;99809.63;2087119;28;20238;-83
2021/11/09 00:56:58;;;;;;;76.95;45.53;;;;;;;5.93;100.00;99818.13;2088069;28;20222;-82
2021/11/09 00:58:00;;;;;;;78.30;47.07;;;;;;;5.92;100.00;99811.22;2088004;28;20258;-83
2021/11/09 00:59:05;;;;;;;77.72;45.75;;;;;;;5.94;100.00;99803.81;2088142;28;20230;-84
2021/11/09 01:00:09;;;;;;;75.40;45.22;;;;;;;5.93;100.00;99815.47;2087888;28;20233;-84
2021/11/09 01:01:10;;;;;;;73.35;44.80;;;;;;;5.95;100.00;99805.44;2087076;28;20671;-84
2021/11/09 01:02:12;;;;;;;71.87;44.23;;;;;;;5.97;100.00;99808.63;2087414;28;20262;-84
2021/11/09 01:03:13;;;;;;;75.10;45.70;;;;;;;5.96;100.00;99807.03;2079366;28;20709;-83
2021/11/09 01:04:15;;;;;;;69.60;44.78;;;;;;;5.96;100.00;99812.31;2087724;28;20572;-84
2021/11/09 01:05:20;;;;;;;73.68;48.60;;;;;;;5.93;100.00;99804.88;2088271;28;20226;-84
2021/11/09 01:06:22;;;;;;;72.80;46.28;;;;;;;5.98;100.00;99812.06;2087977;28;20226;-84
2021/11/09 01:07:24;;;;;;;70.78;44.35;;;;;;;6.00;100.00;99817.94;2087067;28;20252;-84
2021/11/09 01:08:26;;;;;;;72.57;46.22;;;;;;;5.95;100.00;99808.06;2087416;28;20227;-84
2021/11/09 01:09:27;;;;;;;74.78;46.35;;;;;;;5.93;100.00;99813.63;2088127;28;20227;-84
2021/11/09 01:10:31;;;;;;;72.67;45.37;;;;;;;5.92;100.00;99814.66;2087400;28;20223;-84
2021/11/09 01:11:31;;;;;;;78.60;47.78;;;;;;;5.93;100.00;99812.81;2087157;28;20219;-84
2021/11/09 01:12:33;;;;;;;77.27;46.40;;;;;;;5.93;100.00;99812.81;2087967;28;20727;-85
2021/11/09 01:13:35;;;;;;;77.95;45.85;;;;;;;5.93;100.00;99808.31;2087239;28;20226;-84
2021/11/09 01:14:41;;;;;;;71.63;46.05;;;;;;;5.94;100.00;99815.22;2079117;28;20241;-83
2021/11/09 01:15:49;;;;;;;75.22;46.75;;;;;;;5.95;100.00;99816.03;2078904;28;20235;-83
2021/11/09 01:16:50;;;;;;;75.15;47.00;;;;;;;5.93;100.00;99813.63;2079859;28;20220;-83
2021/11/09 01:17:52;;;;;;;72.47;46.35;;;;;;;5.94;100.00;99809.91;2087195;28;20230;-83
2021/11/09 01:18:56;;;;;;;72.38;44.85;;;;;;;5.97;100.00;99808.63;2086731;28;20607;-82
2021/11/09 01:19:57;;;;;;;80.93;46.75;;;;;;;5.95;100.00;99813.38;2087330;28;20305;-82
2021/11/09 01:21:01;;;;;;;72.47;45.80;;;;;;;5.95;100.00;99816.81;2087034;28;20336;-82
2021/11/09 01:22:03;;;;;;;77.65;47.50;;;;;;;5.96;100.00;99812.31;2086788;28;20296;-82
2021/11/09 01:23:05;;;;;;;72.63;45.38;;;;;;;5.95;100.00;99816.81;2078823;28;20223;-82
2021/11/09 01:24:06;;;;;;;71.25;45.47;;;;;;;5.96;100.00;99809.66;2087048;28;20288;-83
2021/11/09 01:25:10;;;;;;;76.80;46.73;;;;;;;5.97;100.00;99816.56;2086640;28;20230;-75
2021/11/09 01:26:11;;;;;;;76.55;45.70;;;;;;;5.96;100.00;99817.63;2078904;28;20294;-83
2021/11/09 01:27:14;;;;;;;76.13;45.58;;;;;;;5.96;100.00;99812.31;2078957;28;20231;-83
2021/11/09 01:28:15;;;;;;;78.35;45.22;;;;;;;5.97;100.00;99819.22;2087150;28;20215;-83
2021/11/09 01:29:17;;;;;;;76.38;45.03;;;;;;;5.95;100.00;99816.03;2087713;28;20222;-83
2021/11/09 01:30:19;;;;;;;79.15;45.30;;;;;;;5.96;100.00;99817.63;2087954;28;20226;-83
2021/11/09 01:31:22;;;;;;;76.95;46.15;;;;;;;5.94;100.00;99817.88;2087283;28;20252;-83
2021/11/09 01:32:23;;;;;;;78.55;45.42;;;;;;;5.97;100.00;99813.13;2086283;28;20581;-82
2021/11/09 01:33:24;;;;;;;75.80;46.27;;;;;;;5.98;100.00;99827.97;2087677;28;20269;-81
2021/11/09 01:34:25;;;;;;;75.85;44.30;;;;;;;5.97;100.00;99823.72;2087435;28;20230;-82
2021/11/09 01:35:30;;;;;;;75.35;45.97;;;;;;;5.97;100.00;99816.56;2087590;28;20211;-82
2021/11/09 01:36:31;;;;;;;68.93;42.90;;;;;;;5.98;100.00;99815.50;2086887;28;20351;-82
2021/11/09 01:37:33;;;;;;;77.47;46.07;;;;;;;5.97;100.00;99824.50;2078768;28;20222;-82
2021/11/09 01:38:34;;;;;;;69.65;44.65;;;;;;;6.01;100.00;99825.63;2086813;28;20250;-82
2021/11/09 01:39:36;;;;;;;71.35;43.17;;;;;;;6.00;100.00;99824.03;2087369;28;20298;-82
2021/11/09 01:40:39;;;;;;;78.43;46.22;;;;;;;5.99;100.00;99818.97;2086927;28;20243;-79
2021/11/09 01:41:42;;;;;;;74.53;43.72;;;;;;;6.00;100.00;99815.28;2087583;28;20229;-81
2021/11/09 01:42:42;;;;;;;76.35;45.33;;;;;;;5.99;100.00;99819.75;2087635;28;20563;-82
2021/11/09 01:43:46;;;;;;;74.80;44.47;;;;;;;6.03;100.00;99817.44;2087555;28;20244;-82
2021/11/09 01:44:47;;;;;;;67.75;43.67;;;;;;;6.01;100.00;99819.53;2086592;28;20222;-82
2021/11/09 01:45:50;;;;;;;76.93;44.97;;;;;;;5.99;100.00;99819.75;2078476;28;20246;-82
2021/11/09 01:46:51;;;;;;;70.32;44.30;;;;;;;6.03;100.00;99822.72;2078793;28;20674;-83
2021/11/09 01:47:56;;;;;;;72.17;43.57;;;;;;;6.01;100.00;99830.94;2078229;28;20615;-74
2021/11/09 01:48:59;;;;;;;77.03;44.88;;;;;;;6.02;100.00;99823.78;2079081;28;20303;-81
2021/11/09 01:50:02;;;;;;;65.88;44.15;;;;;;;6.01;100.00;99830.94;2086598;28;20223;-82
2021/11/09 01:51:04;;;;;;;67.68;43.28;;;;;;;6.03;100.00;99828.03;2087754;28;20222;-82
2021/11/09 01:52:07;;;;;;;77.50;45.03;;;;;;;6.03;100.00;99828.84;2087485;28;20277;-82
2021/11/09 01:53:08;;;;;;;75.22;46.53;;;;;;;6.07;100.00;99827.28;2087268;28;20711;-82
2021/11/09 01:54:10;;;;;;;74.88;44.35;;;;;;;6.07;100.00;99831.78;2087587;28;20239;-82
2021/11/09 01:55:15;;;;;;;70.13;45.30;;;;;;;6.05;100.00;99825.94;2086617;28;20292;-83
2021/11/09 01:56:21;;;;;;;73.05;44.42;;;;;;;6.05;100.00;99834.69;2086769;28;20242;-83
2021/11/09 01:57:23;;;;;;;83.38;45.42;;;;;;;6.04;100.00;99832.28;2087336;28;20306;-81
2021/11/09 01:58:25;;;;;;;70.85;44.00;;;;;;;6.03;100.00;99839.44;2086943;28;20222;-83
2021/11/09 01:59:29;;;;;;;72.65;44.95;;;;;;;6.13;100.00;99841.41;2086650;28;20229;-82
2021/11/09 02:00:33;;;;;;;72.18;44.08;;;;;;;6.12;100.00;99839.78;2086865;28;20229;-83
2021/11/09 02:01:36;;;;;;;70.78;44.83;;;;;;;6.08;100.00;99846.63;2078903;28;20223;-82
2021/11/09 02:02:39;;;;;;;65.50;44.10;;;;;;;6.10;100.00;99845.34;2085621;28;20219;-81
2021/11/09 02:03:45;;;;;;;72.93;43.67;;;;;;;6.07;100.00;99840.53;2087262;28;20231;-82
2021/11/09 02:04:46;;;;;;;74.38;44.95;;;;;;;6.08;100.00;99852.75;2086393;28;20222;-82
2021/11/09 02:05:49;;;;;;;74.88;43.97;;;;;;;6.09;100.00;99841.09;2078345;28;20709;-82
2021/11/09 02:06:50;;;;;;;76.75;46.90;;;;;;;6.10;100.00;99850.63;2086812;28;20226;-82
2021/11/09 02:07:53;;;;;;;71.43;44.63;;;;;;;6.07;100.00;99851.13;2087446;28;20293;-82
2021/11/09 02:08:58;;;;;;;75.20;45.92;;;;;;;6.06;100.00;99838.13;2086885;28;20245;-82
2021/11/09 02:10:01;;;;;;;69.28;44.63;;;;;;;6.08;100.00;99846.63;2087492;28;20231;-83
2021/11/09 02:11:02;;;;;;;72.28;43.45;;;;;;;6.10;100.00;99850.63;2086689;28;20748;-82
2021/11/09 02:12:05;;;;;;;74.22;44.30;;;;;;;6.09;100.00;99849.03;2086593;28;20596;-82
2021/11/09 02:13:07;;;;;;;76.43;46.05;;;;;;;6.07;100.00;99847.66;2078435;28;20230;-82
2021/11/09 02:14:09;;;;;;;68.32;43.13;;;;;;;6.05;100.00;99841.81;2086242;28;20233;-82
2021/11/09 02:15:11;;;;;;;72.72;43.10;;;;;;;6.07;100.00;99845.81;2087384;28;20222;-82
2021/11/09 02:16:13;;;;;;;66.25;42.85;;;;;;;6.10;100.00;99850.63;2086745;28;20254;-82
2021/11/09 02:17:17;;;;;;;70.90;44.08;;;;;;;6.08;100.00;99846.63;2086434;28;20223;-81
2021/11/09 02:18:19;;;;;;;78.30;45.42;;;;;;;6.10;100.00;99850.63;2086618;28;20271;-82
2021/11/09 02:19:20;;;;;;;67.25;43.78;;;;;;;6.09;100.00;99843.75;2078474;28;20694;-82
2021/11/09 02:20:25;;;;;;;69.67;43.30;;;;;;;6.08;100.00;99844.81;2078086;28;20242;-82
2021/11/09 02:21:28;;;;;;;67.70;43.67;;;;;;;6.06;100.00;99852.16;2086280;28;20226;-81
2021/11/09 02:22:29;;;;;;;63.85;42.53;;;;;;;6.05;100.00;99847.91;2086915;28;20301;-82
2021/11/09 02:23:32;;;;;;;70.05;43.75;;;;;;;6.05;100.00;99850.56;2078618;28;20222;-81
2021/11/09 02:24:34;;;;;;;64.47;41.78;;;;;;;6.01;100.00;99836.22;2086598;28;20246;-82
2021/11/09 02:25:35;;;;;;;72.05;43.97;;;;;;;6.05;100.00;99842.63;2087412;28;20241;-82
2021/11/09 02:26:37;;;;;;;69.07;43.00;;;;;;;6.08;100.00;99846.63;2086295;28;20685;-82
2021/11/09 02:27:39;;;;;;;66.45;42.80;;;;;;;6.04;100.00;99838.38;2077818;28;20223;-81
2021/11/09 02:28:41;;;;;;;71.50;44.70;;;;;;;6.06;100.00;99844.22;2086459;28;20223;-81
2021/11/09 02:29:42;;;;;;;73.65;43.67;;;;;;;6.09;100.00;99857.00;2086318;28;20638;-81
2021/11/09 02:30:46;;;;;;;65.60;43.58;;;;;;;6.09;100.00;99854.34;2078626;28;20242;-82
2021/11/09 02:31:48;;;;;;;71.93;45.15;;;;;;;6.09;100.00;99854.34;2078609;28;20260;-81
2021/11/09 02:32:49;;;;;;;64.85;43.88;;;;;;;6.10;100.00;99861.25;2078133;28;20622;-81
2021/11/09 02:33:51;;;;;;;68.73;43.87;;;;;;;6.10;100.00;99858.59;2086599;28;20223;-81
2021/11/09 02:34:53;;;;;;;75.95;44.60;;;;;;;6.12;100.00;99858.34;2085852;28;20461;-80
2021/11/09 02:35:54;;;;;;;74.30;44.45;;;;;;;6.11;100.00;99859.38;2086270;28;20226;-81
2021/11/09 02:36:58;;;;;;;68.53;44.65;;;;;;;6.10;100.00;99857.78;2087174;28;20230;-81
2021/11/09 02:38:01;;;;;;;72.32;43.85;;;;;;;6.10;100.00;99860.44;2087273;28;20230;-81
2021/11/09 02:39:02;;;;;;;70.65;44.15;;;;;;;6.07;100.00;99858.25;2087298;28;20287;-82
2021/11/09 02:40:05;;;;;;;73.93;44.30;;;;;;;6.08;100.00;99858.03;2086702;28;20222;-82
2021/11/09 02:41:06;;;;;;;74.40;45.63;;;;;;;6.09;100.00;99864.94;2086318;28;20247;-82
2021/11/09 02:42:11;;;;;;;78.20;44.53;;;;;;;6.08;100.00;99865.16;2086057;28;20250;-81
2021/11/09 02:43:14;;;;;;;70.13;45.33;;;;;;;6.10;100.00;99865.75;2078625;28;20226;-82
2021/11/09 02:44:20;;;;;;;74.55;45.78;;;;;;;6.05;100.00;99866.47;2086725;28;20222;-82
2021/11/09 02:45:31;;;;;;;71.88;44.78;;;;;;;6.05;100.00;99871.75;2087243;28;20214;-82
2021/11/09 02:46:42;;;;;;;78.22;46.88;;;;;;;6.09;100.00;99869.44;2086293;28;20325;-83
2021/11/09 02:47:45;;;;;;;73.20;45.50;;;;;;;6.13;100.00;99876.63;2086362;28;20238;-83
2021/11/09 02:48:53;;;;;;;73.00;46.25;;;;;;;6.10;100.00;99871.84;2086905;28;20222;-83
2021/11/09 02:49:57;;;;;;;75.60;45.33;;;;;;;6.09;100.00;99878.19;2086426;28;20591;-82
2021/11/09 02:51:03;;;;;;;72.65;46.22;;;;;;;6.10;100.00;99874.47;2087656;28;20226;-82
2021/11/09 02:52:08;;;;;;;71.47;45.53;;;;;;;6.07;100.00;99877.59;2087336;28;20246;-84
2021/11/09 02:53:11;;;;;;;75.78;45.58;;;;;;;6.08;100.00;99876.59;2086117;28;20669;-83
2021/11/09 02:54:18;;;;;;;80.15;46.63;;;;;;;6.09;100.00;99875.53;2078642;28;20223;-83
2021/11/09 02:55:23;;;;;;;74.10;45.00;;;;;;;6.08;100.00;99876.59;2079175;28;20649;-83
2021/11/09 02:56:28;;;;;;;78.88;46.08;;;;;;;6.08;100.00;99873.09;2077973;28;20238;-83
2021/11/09 02:57:36;;;;;;;72.95;44.65;;;;;;;6.12;100.00;99874.22;2086867;28;20222;-83
2021/11/09 02:58:47;;;;;;;72.40;44.97;;;;;;;6.08;100.00;99876.59;2086944;28;20348;-82
2021/11/09 02:59:55;;;;;;;77.78;45.97;;;;;;;6.08;100.00;99873.94;2087204;28;20599;-83
2021/11/09 03:01:07;;;;;;;71.35;45.40;;;;;;;6.07;100.00;99882.09;2087097;28;20685;-83
2021/11/09 03:02:15;;;;;;;79.40;46.55;;;;;;;6.06;100.00;99883.16;2087073;28;20234;-83
2021/11/09 03:03:20;;;;;;;70.45;44.70;;;;;;;6.07;100.00;99879.47;2086481;28;20247;-83
2021/11/09 03:04:32;;;;;;;73.30;44.78;;;;;;;6.07;100.00;99880.25;2086791;28;20305;-83
2021/11/09 03:05:44;;;;;;;69.45;44.05;;;;;;;6.08;100.00;99876.59;2079616;28;20640;-83
2021/11/09 03:06:49;;;;;;;76.25;45.10;;;;;;;6.09;100.00;99883.47;2086481;28;20253;-83
2021/11/09 03:07:55;;;;;;;77.53;45.88;;;;;;;6.07;100.00;99880.25;2087315;28;20214;-83
2021/11/09 03:09:00;;;;;;;75.35;44.15;;;;;;;6.07;100.00;99882.09;2086506;28;20222;-84
2021/11/09 03:10:06;;;;;;;68.90;44.85;;;;;;;6.07;100.00;99885.56;2078767;28;20227;-83
2021/11/09 03:11:06;;;;;;;76.15;45.75;;;;;;;6.06;100.00;99880.50;2078871;28;20250;-83
2021/11/09 03:12:10;;;;;;;67.13;43.13;;;;;;;6.06;100.00;99888.44;2077874;28;20227;-82
2021/11/09 03:13:11;;;;;;;68.65;42.38;;;;;;;6.04;100.00;99883.41;2078727;28;20697;-83
2021/11/09 03:14:13;;;;;;;80.30;44.47;;;;;;;6.04;100.00;99885.25;2079377;28;20695;-83
2021/11/09 03:15:17;;;;;;;66.57;43.88;;;;;;;6.07;100.00;99893.50;2088501;28;20234;-84
2021/11/09 03:16:20;;;;;;;69.13;42.10;;;;;;;6.06;100.00;99904.34;2088741;28;20226;-83
2021/11/09 03:17:23;;;;;;;66.95;42.67;;;;;;;6.08;100.00;99900.44;2088953;28;20218;-84
2021/11/09 03:18:28;;;;;;;67.05;41.88;;;;;;;6.08;100.00;99903.09;2088459;28;20242;-82
2021/11/09 03:19:37;;;;;;;62.10;40.30;;;;;;;6.08;100.00;99904.91;2088965;28;20225;-83
2021/11/09 03:20:44;;;;;;;69.40;42.88;;;;;;;6.07;100.00;99904.09;2088459;28;20564;-82
2021/11/09 03:40:34;;;;;;;64.40;41.85;;;;;;;6.03;100.00;99913.59;2054794;28;20299;-82
2021/11/09 03:44:19;;;;;;;73.10;42.60;;;;;;;6.00;100.00;99922.03;2087484;28;20222;-83
2021/11/09 03:45:24;;;;;;;72.72;43.42;;;;;;;5.99;100.00;99911.66;2088210;28;20234;-83
2021/11/09 03:46:30;;;;;;;65.43;41.75;;;;;;;6.07;100.00;99920.00;2087952;28;20653;-82
2021/11/09 03:47:35;;;;;;;68.53;42.55;;;;;;;6.08;100.00;99918.97;2088763;28;20577;-82
2021/11/09 03:48:36;;;;;;;68.93;42.97;;;;;;;6.04;100.00;99917.84;2088464;28;20276;-82
2021/11/09 03:49:39;;;;;;;70.03;42.50;;;;;;;6.02;100.00;99927.88;2087438;28;20230;-80
2021/11/09 03:50:41;;;;;;;67.00;43.03;;;;;;;6.02;100.00;99930.53;2080046;28;20280;-83
2021/11/09 03:51:42;;;;;;;67.07;40.92;;;;;;;6.07;100.00;99929.78;2079792;28;20265;-83
2021/11/09 03:52:45;;;;;;;65.88;42.85;;;;;;;6.05;100.00;99924.75;2079194;28;20714;-83
2021/11/09 03:53:49;;;;;;;64.55;41.15;;;;;;;6.05;100.00;99926.59;2079965;28;20228;-83
2021/11/09 03:54:58;;;;;;;64.28;41.53;;;;;;;6.10;100.00;99924.81;2087717;28;20215;-83
2021/11/09 03:56:12;;;;;;;63.00;40.50;;;;;;;6.10;100.00;99930.13;2080068;28;20235;-83
2021/11/09 03:57:18;;;;;;;62.92;40.58;;;;;;;6.05;100.00;99929.25;2087608;28;20222;-83
2021/11/09 03:58:24;;;;;;;67.35;40.80;;;;;;;6.04;100.00;99933.75;2087769;28;20585;-84
2021/11/09 03:59:35;;;;;;;64.15;41.13;;;;;;;6.08;100.00;99937.53;2079643;28;20227;-83
2021/11/09 04:00:42;;;;;;;64.65;40.30;;;;;;;6.05;100.00;99932.69;2087830;28;20230;-84
2021/11/09 04:01:59;;;;;;;61.83;40.60;;;;;;;6.08;100.00;99932.22;2087177;28;20662;-83
2021/11/09 04:03:05;;;;;;;58.40;40.17;;;;;;;6.05;100.00;99937.19;2087132;28;20232;-83
2021/11/09 04:04:33;;;;;;;61.92;40.70;;;;;;;6.02;100.00;99930.53;2088062;28;20234;-83
2021/11/09 04:05:38;;;;;;;61.25;39.40;;;;;;;6.06;100.00;99938.78;2086955;28;20223;-83
2021/11/09 04:06:42;;;;;;;65.55;41.75;;;;;;;6.05;100.00;99937.19;2087445;28;20626;-82
2021/11/09 04:07:52;;;;;;;60.35;39.28;;;;;;;6.07;100.00;99946.47;2087612;28;20558;-83
2021/11/09 04:08:58;;;;;;;56.50;37.92;;;;;;;6.11;100.00;99942.31;2087448;28;20650;-82
2021/11/09 04:10:13;;;;;;;59.45;38.15;;;;;;;6.13;100.00;99944.72;2088219;28;20231;-84
2021/11/09 04:11:17;;;;;;;55.88;39.55;;;;;;;6.09;100.00;99944.41;2087249;28;20676;-83
2021/11/09 04:13:49;;;;;;;56.92;38.42;;;;;;;6.07;100.00;99941.19;2067345;28;20614;-83
2021/11/09 04:14:54;;;;;;;55.15;38.95;;;;;;;6.08;100.00;99940.16;2088694;28;20223;-83
2021/11/09 04:16:13;;;;;;;57.97;39.17;;;;;;;6.05;100.00;99940.63;2087050;28;20650;-83
2021/11/09 04:17:18;;;;;;;61.05;38.55;;;;;;;6.10;100.00;99945.22;2087466;28;20215;-83
2021/11/09 04:18:39;;;;;;;54.08;38.13;;;;;;;6.13;100.00;99942.88;2087704;28;20226;-84
2021/11/09 04:19:45;;;;;;;58.33;38.50;;;;;;;6.07;100.00;99945.69;2086799;28;20218;-84
2021/11/09 04:20:59;;;;;;;60.28;38.13;;;;;;;6.08;100.00;99937.53;2087693;28;20218;-85
2021/11/09 04:22:35;;;;;;;59.92;39.00;;;;;;;6.08;100.00;99944.63;2087150;28;20231;-83
2021/11/09 04:25:06;;;;;;;58.80;38.63;;;;;;;6.04;100.00;99944.34;2087476;28;20214;-83
2021/11/09 04:27:54;;;;;;;56.70;39.03;;;;;;;6.03;100.00;99942.72;2090320;27;20569;-81
2021/11/09 04:30:32;;;;;;;62.47;40.58;;;;;;;6.00;100.00;99953.81;2087505;28;20256;-81
2021/11/09 04:53:06;;;;;;;64.70;41.33;;;;;;;6.00;100.00;99968.91;2085834;28;20215;-77
2021/11/09 05:08:49;;;;;;;60.33;40.88;;;;;;;5.90;100.00;99994.19;2087069;28;20215;-76
2021/11/09 05:09:55;;;;;;;64.40;41.15;;;;;;;5.94;100.00;99989.22;2093331;28;20349;-77
2021/11/09 05:10:57;;;;;;;59.17;39.97;;;;;;;5.94;100.00;99995.31;2086728;28;20258;-76
2021/11/09 05:11:59;;;;;;;58.78;39.35;;;;;;;5.93;100.00;99998.22;2085741;28;20306;-78
2021/11/09 05:13:01;;;;;;;66.05;41.38;;;;;;;5.91;100.00;99995.81;2084743;28;20223;-77
2021/11/09 05:14:04;;;;;;;63.35;40.47;;;;;;;5.95;100.00;99999.56;2085039;28;20297;-77
2021/11/09 05:15:06;;;;;;;64.03;40.88;;;;;;;5.95;100.00;99996.13;2084907;28;20219;-77
2021/11/09 05:16:08;;;;;;;63.25;41.00;;;;;;;5.97;100.00;100001.97;2082567;28;20328;-75
2021/11/09 05:17:09;;;;;;;64.82;42.85;;;;;;;5.94;100.00;99995.31;2084656;28;20307;-77
2021/11/09 05:18:11;;;;;;;61.93;42.47;;;;;;;5.97;100.00;100004.63;2093100;28;20226;-76
2021/11/09 05:19:12;;;;;;;67.45;40.40;;;;;;;5.98;100.00;99998.28;2093344;28;22280;-77
2021/11/09 05:20:13;;;;;;;67.97;42.78;;;;;;;5.98;100.00;100000.91;2085174;28;20235;-78
2021/11/09 05:21:15;;;;;;;66.70;42.10;;;;;;;5.98;100.00;100005.41;2084942;28;20219;-78
2021/11/09 05:22:16;;;;;;;64.32;41.63;;;;;;;5.95;100.00;100006.72;2084723;28;20295;-78
2021/11/09 05:23:18;;;;;;;68.87;41.80;;;;;;;5.96;100.00;100003.03;2085125;28;20215;-78
2021/11/09 05:24:19;;;;;;;65.82;43.38;;;;;;;5.97;100.00;100004.63;2093106;28;20233;-78
2021/11/09 05:25:23;;;;;;;61.97;41.47;;;;;;;5.99;100.00;100007.81;2092938;28;20301;-78
2021/11/09 05:26:27;;;;;;;63.05;42.88;;;;;;;5.99;100.00;100012.31;2092713;28;20290;-78
2021/11/09 05:27:28;;;;;;;64.88;43.80;;;;;;;6.00;100.00;100019.25;2092759;28;20226;-78
2021/11/09 05:28:30;;;;;;;62.17;40.15;;;;;;;6.00;100.00;100016.59;2085106;28;20301;-78
2021/11/09 05:29:32;;;;;;;62.95;40.47;;;;;;;5.97;100.00;100014.41;2092839;28;20222;-77
2021/11/09 05:30:34;;;;;;;67.07;41.38;;;;;;;5.97;100.00;100014.41;2092992;28;20264;-78
2021/11/09 05:31:36;;;;;;;63.92;41.95;;;;;;;6.00;100.00;100022.69;2093760;28;20352;-78
2021/11/09 05:32:37;;;;;;;65.05;41.92;;;;;;;5.97;100.00;100022.34;2093109;28;20218;-76
2021/11/09 05:33:39;;;;;;;65.87;41.70;;;;;;;5.95;100.00;100026.06;2092753;28;20481;-77
2021/11/09 05:34:40;;;;;;;68.85;42.70;;;;;;;5.95;100.00;100025.25;2084913;28;20226;-77
2021/11/09 05:35:42;;;;;;;59.57;40.57;;;;;;;5.94;100.00;100032.41;2092844;28;20218;-78
2021/11/09 05:36:44;;;;;;;60.17;38.78;;;;;;;5.94;100.00;100027.09;2084738;28;20604;-77
2021/11/09 05:37:48;;;;;;;67.15;42.28;;;;;;;5.96;100.00;100037.44;2093097;28;20555;-77
2021/11/09 05:38:53;;;;;;;67.68;42.55;;;;;;;5.98;100.00;100034.56;2089577;28;20222;-77
2021/11/09 05:39:56;;;;;;;56.70;40.05;;;;;;;5.99;100.00;100036.16;2087743;28;20242;-77
2021/11/09 05:41:05;;;;;;;62.40;41.78;;;;;;;6.01;100.00;100040.19;2087378;28;22373;-77
2021/11/09 05:42:07;;;;;;;57.55;40.20;;;;;;;6.00;100.00;100041.25;2087496;28;20619;-77
2021/11/09 05:43:09;;;;;;;59.08;40.97;;;;;;;6.00;100.00;100033.28;2087873;28;20230;-76
2021/11/09 05:44:10;;;;;;;58.97;39.80;;;;;;;5.98;100.00;100037.22;2087422;28;20641;-77
2021/11/09 05:45:17;;;;;;;59.47;40.00;;;;;;;5.98;100.00;100037.22;2087370;28;20218;-77
2021/11/09 05:46:21;;;;;;;59.35;39.88;;;;;;;5.98;100.00;100039.84;2079886;28;20644;-77
2021/11/09 05:47:23;;;;;;;54.80;38.33;;;;;;;5.97;100.00;100043.53;2080712;28;20227;-75
2021/11/09 05:48:24;;;;;;;57.15;40.15;;;;;;;5.98;100.00;100045.94;2079649;28;20246;-76
2021/11/09 05:49:27;;;;;;;58.13;38.23;;;;;;;5.99;100.00;100050.19;2079868;28;20677;-77
2021/11/09 05:50:30;;;;;;;55.88;38.70;;;;;;;6.00;100.00;100057.13;2079837;28;20625;-77
2021/11/09 05:51:32;;;;;;;58.63;40.22;;;;;;;6.00;100.00;100057.13;2080005;28;20227;-77
2021/11/09 05:52:33;;;;;;;60.05;40.90;;;;;;;6.02;100.00;100060.34;2078864;28;20224;-77
2021/11/09 05:53:37;;;;;;;54.47;38.87;;;;;;;6.03;100.00;100061.13;2070918;28;20710;-76
2021/11/09 05:54:38;;;;;;;59.15;40.10;;;;;;;6.04;100.00;100068.03;2074595;28;20462;-77
2021/11/09 05:55:40;;;;;;;58.37;39.73;;;;;;;6.04;100.00;100070.69;2070733;28;20255;-77
2021/11/09 05:56:41;;;;;;;60.50;39.45;;;;;;;6.05;100.00;100070.44;2079212;28;20227;-76